LFBT/LDE METAR and TAF weather

Enter ICAO airport designator
Station Type Date Time Source
LFBT METAR 2019/08/26 07:00 UTC NOAA

LFBT 260700Z AUTO VRB02KT CAVOK 18/17 Q1017 NOSIG


Station Type Date Time Source
LFBT Decoded METAR 2019/08/26 07:00 UTC NOAA

Station name not available
Aug 26, 2019 - 03:00 AM EDT / 2019.08.26 0700 UTC
Wind: Variable at 2 MPH (2 KT):0
Visibility: greater than 7 mile(s):0
Temperature: 64 F (18 C)
Dew Point: 62 F (17 C)
Relative Humidity: 93%
Pressure (altimeter): 30.03 in. Hg (1017 hPa)
ob: LFBT 260700Z AUTO VRB02KT CAVOK 18/17 Q1017 NOSIG
cycle: 7

Station Type Date Time Source
LFBT TAF 2019/08/26 06:43 UTC NOAA

TAF LFBT 260500Z 2606/2706 VRB02KT 8000 NSC
BECMG 2606/2608 CAVOK PROB40 2606/2607 4000 BR BKN010
TEMPO 2623/2706 BKN012

Example: see airport list